createdAt,value
2022-12-23T00:01:09.062Z,100294.59
2022-12-23T00:03:35.894Z,100290.84
2022-12-23T00:06:09.215Z,100290.84
2022-12-23T00:08:36.477Z,100290.84
2022-12-23T00:11:05.426Z,100294.34
2022-12-23T00:13:51.146Z,100284.38
2022-12-23T00:16:17.640Z,100299.50
2022-12-23T00:18:44.076Z,100311.97
2022-12-23T00:21:13.725Z,100314.09
2022-12-23T00:23:42.800Z,100315.72
2022-12-23T00:26:15.436Z,100320.31
2022-12-23T00:28:42.095Z,100321.13
2022-12-23T00:31:09.453Z,100322.75
2022-12-23T00:33:38.634Z,100326.53
2022-12-23T00:36:31.335Z,100317.38
2022-12-23T00:39:17.638Z,100330.28
2022-12-23T00:42:03.148Z,100323.25
2022-12-23T00:44:29.612Z,100334.88
2022-12-23T00:46:56.069Z,100329.69
2022-12-23T00:49:40.969Z,100330.19
2022-12-23T00:52:11.034Z,100327.47
2022-12-23T00:54:37.486Z,100331.44
2022-12-23T00:57:04.253Z,100333.78
2022-12-23T00:59:30.715Z,100341.06
2022-12-23T01:02:15.896Z,100343.78
2022-12-23T01:05:01.176Z,100350.47
2022-12-23T01:07:27.668Z,100347.19
2022-12-23T01:09:54.115Z,100347.19
2022-12-23T01:12:20.702Z,100349.31
2022-12-23T01:14:47.099Z,100353.06
2022-12-23T01:17:13.794Z,100353.06
2022-12-23T01:19:40.359Z,100349.75
2022-12-23T01:22:06.847Z,100348.91
2022-12-23T01:24:33.562Z,100346.44
2022-12-23T01:27:00.474Z,100355.59
2022-12-23T01:29:27.028Z,100367.22
2022-12-23T01:31:53.585Z,100372.63
2022-12-23T01:34:20.175Z,100373.44
2022-12-23T01:36:46.579Z,100376.16
2022-12-23T01:39:13.029Z,100385.06
2022-12-23T01:41:57.815Z,100384.25
2022-12-23T01:44:50.296Z,100384.25
2022-12-23T01:47:26.216Z,100389.66
2022-12-23T01:50:01.051Z,100385.91
2022-12-23T01:52:28.505Z,100391.28
2022-12-23T01:54:56.168Z,100395.88
2022-12-23T01:57:23.643Z,100392.94
2022-12-23T02:00:09.458Z,100398.34
2022-12-23T02:02:57.449Z,100405.84
2022-12-23T02:05:24.359Z,100415.81
2022-12-23T02:08:10.628Z,100416.28
2022-12-23T02:10:56.688Z,100420.06
2022-12-23T02:14:00.732Z,100415.72
2022-12-23T02:16:31.836Z,100422.97
2022-12-23T02:19:17.728Z,100425.09
2022-12-23T02:22:18.275Z,100423.69
2022-12-23T02:25:26.263Z,100425.56
2022-12-23T02:28:04.725Z,100430.97
2022-12-23T02:30:49.241Z,100441.75
2022-12-23T02:33:48.387Z,100447.16
2022-12-23T02:36:31.604Z,100455.25
2022-12-23T02:39:05.415Z,100455.69
2022-12-23T02:41:45.252Z,100461.31
2022-12-23T02:44:27.033Z,100457.22
2022-12-23T02:47:00.507Z,100456.03
2022-12-23T02:49:38.660Z,100461.66
2022-12-23T02:52:11.738Z,100468.34
2022-12-23T02:54:46.921Z,100486.41
2022-12-23T02:57:17.949Z,100483.31
2022-12-23T02:59:49.153Z,100485.41
2022-12-23T03:02:15.743Z,100494.34
2022-12-23T03:04:42.536Z,100490.22
2022-12-23T03:07:20.759Z,100492.09
2022-12-23T03:09:58.765Z,100489.88
2022-12-23T03:12:45.943Z,100492.78
2022-12-23T03:15:33.030Z,100495.25
2022-12-23T03:18:22.292Z,100483.88
2022-12-23T03:21:05.910Z,100491.97
2022-12-23T03:23:39.415Z,100493.84
2022-12-23T03:26:19.207Z,100482.47
2022-12-23T03:29:03.605Z,100476.91
2022-12-23T03:31:33.196Z,100479.22
2022-12-23T03:34:05.902Z,100485.09
2022-12-23T03:36:38.260Z,100483.81
2022-12-23T03:39:10.541Z,100488.38
2022-12-23T03:41:42.261Z,100493.19
2022-12-23T03:44:31.679Z,100489.06
2022-12-23T03:47:10.995Z,100491.75
2022-12-23T03:49:44.330Z,100492.81
2022-12-23T03:52:21.235Z,100492.81
2022-12-23T03:54:57.861Z,100500.06
2022-12-23T03:57:44.136Z,100492.22
2022-12-23T04:00:11.589Z,100489.28
2022-12-23T04:02:50.364Z,100493.84
2022-12-23T04:05:40.394Z,100501.94
2022-12-23T04:08:18.939Z,100511.09
2022-12-23T04:10:46.231Z,100511.28
2022-12-23T04:13:13.012Z,100520.44
2022-12-23T04:15:41.401Z,100517.50
2022-12-23T04:18:09.601Z,100525.00
2022-12-23T04:20:36.413Z,100526.66
2022-12-23T04:23:03.109Z,100535.78
2022-12-23T04:25:29.666Z,100540.34
2022-12-23T04:27:56.107Z,100537.88
2022-12-23T04:30:25.532Z,100550.28
2022-12-23T04:32:54.382Z,100548.22
2022-12-23T04:35:21.160Z,100549.47
2022-12-23T04:37:47.593Z,100546.59
2022-12-23T04:40:14.343Z,100543.66
2022-12-23T04:42:40.881Z,100546.59
2022-12-23T04:45:07.970Z,100529.16
2022-12-23T04:47:35.459Z,100532.69
2022-12-23T04:50:01.925Z,100541.38
2022-12-23T04:52:28.348Z,100540.53
2022-12-23T04:54:54.796Z,100529.97
2022-12-23T04:57:21.466Z,100524.59
2022-12-23T04:59:47.904Z,100526.22
2022-12-23T05:02:14.525Z,100519.19
2022-12-23T05:04:41.329Z,100522.91
2022-12-23T05:07:07.810Z,100525.59
2022-12-23T05:09:34.213Z,100529.16
2022-12-23T05:12:00.831Z,100526.22
2022-12-23T05:14:27.246Z,100524.34
2022-12-23T05:16:53.648Z,100524.13
2022-12-23T05:19:20.089Z,100536.56
2022-12-23T05:21:46.483Z,100532.00
2022-12-23T05:24:12.964Z,100535.75
2022-12-23T05:26:39.437Z,100548.19
2022-12-23T05:29:06.135Z,100551.94
2022-12-23T05:31:32.975Z,100552.97
2022-12-23T05:34:05.755Z,100557.09
2022-12-23T05:36:33.012Z,100559.78
2022-12-23T05:38:59.420Z,100557.09
2022-12-23T05:41:25.848Z,100569.31
2022-12-23T05:43:52.243Z,100570.56
2022-12-23T05:46:24.346Z,100569.75
2022-12-23T05:48:52.827Z,100578.31
2022-12-23T05:51:19.222Z,100578.72
2022-12-23T05:53:45.655Z,100569.81
2022-12-23T05:56:12.254Z,100561.09
2022-12-23T05:58:38.732Z,100571.06
2022-12-23T06:01:05.147Z,100573.97
2022-12-23T06:03:31.765Z,100572.31
2022-12-23T06:05:58.308Z,100575.25
2022-12-23T06:08:25.195Z,100562.81
2022-12-23T06:10:51.682Z,100556.81
2022-12-23T06:13:18.149Z,100564.09
2022-12-23T06:15:44.546Z,100564.91
2022-12-23T06:18:10.939Z,100565.13
2022-12-23T06:20:37.393Z,100558.09
2022-12-23T06:23:03.995Z,100550.84
2022-12-23T06:25:30.468Z,100544.75
2022-12-23T06:27:56.869Z,100548.72
2022-12-23T06:30:23.254Z,100545.81
2022-12-23T06:32:49.739Z,100544.75
2022-12-23T06:35:16.237Z,100548.06
2022-12-23T06:37:42.642Z,100544.75
2022-12-23T06:40:09.672Z,100552.84
2022-12-23T06:42:36.164Z,100552.84
2022-12-23T06:45:02.989Z,100554.34
2022-12-23T06:47:29.533Z,100558.69
2022-12-23T06:49:56.001Z,100567.84
2022-12-23T06:52:22.927Z,100574.28
2022-12-23T06:54:49.344Z,100575.31
2022-12-23T06:57:15.782Z,100571.81
2022-12-23T06:59:42.236Z,100585.28
2022-12-23T07:02:11.573Z,100578.03
2022-12-23T07:04:38.327Z,100579.66
2022-12-23T07:07:04.903Z,100580.28
2022-12-23T07:09:31.287Z,100588.13
2022-12-23T07:11:57.725Z,100591.06
2022-12-23T07:14:24.142Z,100595.63
2022-12-23T07:16:50.636Z,100592.72
2022-12-23T07:19:17.079Z,100605.13
2022-12-23T07:21:43.559Z,100600.56
2022-12-23T07:24:10.237Z,100608.06
2022-12-23T07:26:36.745Z,100606.41
2022-12-23T07:29:04.515Z,100609.34
2022-12-23T07:31:30.981Z,100617.66
2022-12-23T07:33:57.381Z,100607.06
2022-12-23T07:36:23.818Z,100606.88
2022-12-23T07:38:51.623Z,100611.44
2022-12-23T07:41:18.464Z,100607.69
2022-12-23T07:43:45.160Z,100607.47
2022-12-23T07:46:11.648Z,100586.72
2022-12-23T07:48:39.804Z,100586.75
2022-12-23T07:51:06.481Z,100584.19
2022-12-23T07:53:33.187Z,100588.44
2022-12-23T07:55:59.611Z,100588.44
2022-12-23T07:58:26.008Z,100580.06
2022-12-23T08:01:02.685Z,100580.25
2022-12-23T08:03:29.840Z,100593.28
2022-12-23T08:06:03.900Z,100592.00
2022-12-23T08:08:31.041Z,100589.91
2022-12-23T08:11:02.998Z,100586.16
2022-12-23T08:13:30.648Z,100584.28
2022-12-23T08:15:59.345Z,100577.84
2022-12-23T08:18:26.701Z,100578.91
2022-12-23T08:20:54.935Z,100586.97
2022-12-23T08:23:24.945Z,100581.00
2022-12-23T08:26:10.864Z,100568.56
2022-12-23T08:28:38.782Z,100574.19
2022-12-23T08:31:13.567Z,100580.41
2022-12-23T08:33:41.903Z,100576.66
2022-12-23T08:36:15.018Z,100571.25
2022-12-23T08:38:44.784Z,100559.66
2022-12-23T08:41:20.691Z,100553.44
2022-12-23T08:43:47.325Z,100553.19
2022-12-23T08:46:13.939Z,100550.28
2022-12-23T08:48:43.784Z,100561.06
2022-12-23T08:51:16.856Z,100561.66
2022-12-23T08:53:44.347Z,100550.88
2022-12-23T08:56:14.221Z,100547.59
2022-12-23T08:58:42.885Z,100541.38
2022-12-23T09:01:11.792Z,100539.50
2022-12-23T09:03:39.354Z,100533.28
2022-12-23T09:06:08.294Z,100533.50
2022-12-23T09:08:35.153Z,100532.47
2022-12-23T09:11:01.936Z,100527.06
2022-12-23T09:13:35.301Z,100523.31
2022-12-23T09:16:03.014Z,100512.75
2022-12-23T09:18:29.528Z,100518.97
2022-12-23T09:21:19.807Z,100527.88
2022-12-23T09:23:46.648Z,100514.41
2022-12-23T09:26:21.768Z,100516.88
2022-12-23T09:28:48.209Z,100515.22
2022-12-23T09:31:15.516Z,100518.53
2022-12-23T09:33:42.827Z,100511.03
2022-12-23T09:36:09.373Z,100509.38
2022-12-23T09:38:36.153Z,100510.59
2022-12-23T09:41:09.899Z,100520.94
2022-12-23T09:43:51.783Z,100513.91
2022-12-23T09:46:28.322Z,100510.97
2022-12-23T09:49:13.400Z,100508.06
2022-12-23T09:51:39.888Z,100507.00
2022-12-23T09:54:22.866Z,100501.59
2022-12-23T09:57:21.929Z,100500.09
2022-12-23T10:00:10.902Z,100488.72
2022-12-23T10:02:44.400Z,100478.75
2022-12-23T10:05:28.761Z,100458.59
2022-12-23T10:08:24.878Z,100457.34
2022-12-23T10:10:56.397Z,100449.88
2022-12-23T10:13:29.757Z,100446.13
2022-12-23T10:16:01.485Z,100435.34
2022-12-23T10:18:39.725Z,100434.53
2022-12-23T10:21:11.712Z,100438.28
2022-12-23T10:23:42.537Z,100434.94
2022-12-23T10:26:47.685Z,100428.31
2022-12-23T10:29:23.117Z,100426.19
2022-12-23T10:31:56.560Z,100430.31
2022-12-23T10:37:43.416Z,100419.06
2022-12-23T10:40:09.805Z,100426.91
2022-12-23T10:42:46.226Z,100420.69
2022-12-23T10:45:27.769Z,100411.56
2022-12-23T10:48:00.232Z,100414.50
2022-12-23T10:50:56.385Z,100409.44
2022-12-23T10:53:37.170Z,100409.44
2022-12-23T10:56:05.307Z,100399.47
2022-12-23T10:58:32.094Z,100400.31
2022-12-23T11:01:09.937Z,100386.81
2022-12-23T11:03:43.930Z,100389.09
2022-12-23T11:06:11.569Z,100388.84
2022-12-23T11:08:39.079Z,100382.16
2022-12-23T11:11:07.059Z,100376.53
2022-12-23T11:13:37.761Z,100373.38
2022-12-23T11:16:27.960Z,100372.91
2022-12-23T11:19:06.796Z,100369.38
2022-12-23T11:21:33.732Z,100364.81
2022-12-23T11:24:07.678Z,100379.72
2022-12-23T11:26:35.162Z,100372.25
2022-12-23T11:29:09.894Z,100373.88
2022-12-23T11:31:36.933Z,100375.53
2022-12-23T11:34:14.464Z,100360.16
2022-12-23T11:36:41.411Z,100351.81
2022-12-23T11:39:38.596Z,100350.19
2022-12-23T11:42:24.437Z,100336.47
2022-12-23T11:44:54.823Z,100330.22
2022-12-23T11:47:35.676Z,100317.31
2022-12-23T11:50:21.355Z,100298.44
2022-12-23T11:52:53.268Z,100294.69
2022-12-23T11:55:34.663Z,100295.25
2022-12-23T11:58:02.626Z,100279.06
2022-12-23T12:00:36.883Z,100270.97
2022-12-23T12:03:06.390Z,100268.03
2022-12-23T12:05:40.789Z,100264.53
2022-12-23T12:08:13.645Z,100257.47
2022-12-23T12:10:41.829Z,100255.59
2022-12-23T12:13:18.894Z,100252.31
2022-12-23T12:15:52.955Z,100241.75
2022-12-23T12:18:20.845Z,100247.16
2022-12-23T12:20:52.563Z,100234.25
2022-12-23T12:23:48.781Z,100244.22
2022-12-23T12:26:27.520Z,100246.09
2022-12-23T12:29:02.886Z,100248.78
2022-12-23T12:31:39.453Z,100238.00
2022-12-23T12:34:29.087Z,100228.03
2022-12-23T12:37:19.987Z,100213.47
2022-12-23T12:39:52.660Z,100198.59
2022-12-23T12:42:47.937Z,100191.53
2022-12-23T12:45:27.989Z,100194.47
2022-12-23T12:48:25.461Z,100178.28
2022-12-23T12:51:21.052Z,100160.47
2022-12-23T12:54:05.702Z,100155.28
2022-12-23T12:56:43.924Z,100150.97
2022-12-23T12:59:16.959Z,100142.25
2022-12-23T13:02:05.142Z,100139.56
2022-12-23T13:04:52.593Z,100135.22
2022-12-23T13:07:56.626Z,100129.81
2022-12-23T13:10:32.196Z,100123.34
2022-12-23T13:13:09.890Z,100118.19
2022-12-23T13:15:42.853Z,100118.19
2022-12-23T13:18:54.143Z,100115.50
2022-12-23T13:21:44.237Z,100112.56
2022-12-23T13:24:24.352Z,100120.66
2022-12-23T13:27:18.786Z,100109.06
2022-12-23T13:30:00.965Z,100114.44
2022-12-23T13:32:52.410Z,100115.25
2022-12-23T13:35:32.116Z,100105.53
2022-12-23T13:38:01.318Z,100095.81
2022-12-23T13:40:45.700Z,100098.25
2022-12-23T13:43:20.106Z,100095.81
2022-12-23T13:45:48.897Z,100099.56
2022-12-23T13:48:29.151Z,100106.59
2022-12-23T13:51:12.964Z,100110.34
2022-12-23T13:54:04.084Z,100099.56
2022-12-23T13:56:57.877Z,100086.44
2022-12-23T13:59:42.080Z,100073.06
2022-12-23T14:02:36.712Z,100070.84
2022-12-23T14:05:10.462Z,100060.78
2022-12-23T14:07:44.679Z,100056.44
2022-12-23T14:10:19.676Z,100040.84
2022-12-23T14:12:47.651Z,100034.84
2022-12-23T14:15:32.199Z,100025.13
2022-12-23T14:18:10.843Z,100030.63
2022-12-23T14:20:51.343Z,100015.16
2022-12-23T14:23:47.266Z,100029.56
2022-12-23T14:26:37.793Z,100027.75
2022-12-23T14:29:18.461Z,100028.91
2022-12-23T14:31:47.699Z,100014.72
2022-12-23T14:34:20.368Z,100004.75
2022-12-23T14:37:15.995Z,100004.19
2022-12-23T14:39:43.773Z,100003.59
2022-12-23T14:42:16.557Z,100014.41
2022-12-23T14:44:46.282Z,100017.09
2022-12-23T14:47:36.507Z,100010.63
2022-12-23T14:50:41.333Z,100022.38
2022-12-23T14:53:24.419Z,100020.41
2022-12-23T14:56:09.648Z,100024.16
2022-12-23T14:58:46.628Z,100040.91
2022-12-23T15:01:18.243Z,100039.03
2022-12-23T15:03:54.510Z,100019.81
2022-12-23T15:06:42.549Z,100019.56
2022-12-23T15:09:20.177Z,100020.06
2022-12-23T15:11:47.007Z,100014.28
2022-12-23T15:14:24.913Z,100010.19
2022-12-23T15:16:51.371Z,100018.28
2022-12-23T15:19:28.132Z,100007.50
2022-12-23T15:22:20.817Z,99993.69
2022-12-23T15:24:50.485Z,99995.81
2022-12-23T15:27:28.868Z,99994.97
2022-12-23T15:29:56.620Z,99993.94
2022-12-23T15:32:25.468Z,100007.75
2022-12-23T15:34:54.782Z,100006.44
2022-12-23T15:37:27.631Z,99998.84
2022-12-23T15:40:04.491Z,100002.09
2022-12-23T15:42:38.173Z,99995.19
2022-12-23T15:45:23.060Z,99974.69
2022-12-23T15:47:50.211Z,99976.19
2022-12-23T15:50:18.243Z,99999.16
2022-12-23T15:52:47.897Z,99999.78
2022-12-23T15:55:21.222Z,99998.47
2022-12-23T15:57:50.579Z,99990.13
2022-12-23T16:00:41.665Z,99966.09
2022-12-23T16:03:33.947Z,99974.06
2022-12-23T16:06:19.384Z,100005.38
2022-12-23T16:08:57.697Z,100017.72
2022-12-23T16:11:36.392Z,100028.66
2022-12-23T16:14:30.819Z,100016.22
2022-12-23T16:17:09.158Z,100013.63
2022-12-23T16:19:48.969Z,100018.53
2022-12-23T16:22:34.382Z,100016.06
2022-12-23T16:25:22.147Z,100019.25
2022-12-23T16:28:08.897Z,100021.22
2022-12-23T16:30:41.850Z,100018.88
2022-12-23T16:33:26.620Z,100003.16
2022-12-23T16:35:54.319Z,100005.28
2022-12-23T16:38:23.528Z,99994.97
2022-12-23T16:40:53.777Z,99999.66
2022-12-23T16:43:21.566Z,100009.75
2022-12-23T16:45:52.882Z,100007.63
2022-12-23T16:48:28.732Z,100013.59
2022-12-23T16:50:55.506Z,100014.44
2022-12-23T16:53:22.027Z,100013.38
2022-12-23T16:55:55.317Z,100014.19
2022-12-23T16:58:25.340Z,100015.81
2022-12-23T17:00:52.602Z,100015.34
2022-12-23T17:03:20.579Z,100012.06
2022-12-23T17:05:48.246Z,100020.63
2022-12-23T17:08:15.181Z,100026.03
2022-12-23T17:10:44.426Z,100023.91
2022-12-23T17:13:17.225Z,100024.16
2022-12-23T17:15:43.679Z,100024.72
2022-12-23T17:18:13.233Z,100016.63
2022-12-23T17:20:40.392Z,100022.28
2022-12-23T17:23:07.174Z,100028.72
2022-12-23T17:25:33.654Z,100031.66
2022-12-23T17:28:00.136Z,100042.22
2022-12-23T17:30:26.549Z,100035.66
2022-12-23T17:32:56.691Z,100035.31
2022-12-23T17:35:24.917Z,100028.41
2022-12-23T17:37:51.839Z,100033.56
2022-12-23T17:40:19.128Z,100041.16
2022-12-23T17:42:46.474Z,100040.69
2022-12-23T17:45:25.883Z,100029.41
2022-12-23T17:47:52.977Z,100031.41
2022-12-23T17:50:20.393Z,100033.38
2022-12-23T17:52:47.119Z,100035.34
2022-12-23T17:55:25.219Z,100032.75
2022-12-23T17:57:51.841Z,100030.97
2022-12-23T18:00:28.136Z,100038.69
2022-12-23T18:03:00.302Z,100033.97
2022-12-23T18:05:32.023Z,100038.91
2022-12-23T18:08:00.795Z,100035.47
2022-12-23T18:10:39.671Z,100041.56
2022-12-23T18:13:09.960Z,100045.97
2022-12-23T18:15:39.398Z,100051.69
2022-12-23T18:18:23.915Z,100052.88
2022-12-23T18:20:56.534Z,100056.16
2022-12-23T18:23:32.324Z,100051.41
2022-12-23T18:25:59.581Z,100062.06
2022-12-23T18:28:26.835Z,100064.28
2022-12-23T18:30:56.762Z,100061.09
2022-12-23T18:33:24.146Z,100068.47
2022-12-23T18:35:50.928Z,100076.06
2022-12-23T18:38:18.408Z,100078.31
2022-12-23T18:40:45.421Z,100073.97
2022-12-23T18:43:24.061Z,100082.41
2022-12-23T18:45:53.553Z,100073.47
2022-12-23T18:48:20.384Z,100088.13
2022-12-23T18:50:47.005Z,100095.19
2022-12-23T18:53:25.468Z,100094.38
2022-12-23T18:55:53.514Z,100091.41
2022-12-23T18:58:20.666Z,100106.00
2022-12-23T19:00:48.649Z,100101.16
2022-12-23T19:03:29.283Z,100105.75
2022-12-23T19:05:56.983Z,100106.56
2022-12-23T19:08:27.062Z,100108.19
2022-12-23T19:10:55.011Z,100108.44
2022-12-23T19:13:22.221Z,100108.44
2022-12-23T19:15:48.874Z,100104.69
2022-12-23T19:18:20.637Z,100109.84
2022-12-23T19:20:48.631Z,100106.06
2022-12-23T19:23:15.684Z,100108.78
2022-12-23T19:25:49.262Z,100102.78
2022-12-23T19:28:21.681Z,100102.78
2022-12-23T19:30:48.694Z,100120.06
2022-12-23T19:33:15.317Z,100114.66
2022-12-23T19:35:42.383Z,100124.66
2022-12-23T19:38:08.822Z,100126.78
2022-12-23T19:40:35.253Z,100137.38
2022-12-23T19:43:03.061Z,100143.84
2022-12-23T19:45:29.572Z,100140.06
2022-12-23T19:47:56.132Z,100149.81
2022-12-23T19:50:22.624Z,100149.56
2022-12-23T19:52:50.559Z,100147.69
2022-12-23T19:55:17.139Z,100154.72
2022-12-23T19:57:43.778Z,100161.19
2022-12-23T20:00:10.908Z,100154.16
2022-12-23T20:02:40.020Z,100173.66
2022-12-23T20:05:06.836Z,100179.31
2022-12-23T20:07:35.597Z,100183.88
2022-12-23T20:10:02.545Z,100189.88
2022-12-23T20:12:28.985Z,100189.41
2022-12-23T20:14:55.498Z,100187.78
2022-12-23T20:17:21.869Z,100181.31
2022-12-23T20:19:48.308Z,100192.34
2022-12-23T20:22:14.766Z,100185.06
2022-12-23T20:24:41.223Z,100201.28
2022-12-23T20:27:11.348Z,100189.41
2022-12-23T20:29:38.439Z,100191.06
2022-12-23T20:32:05.111Z,100201.38
2022-12-23T20:34:38.365Z,100203.00
2022-12-23T20:37:05.987Z,100210.06
2022-12-23T20:39:32.454Z,100213.81
2022-12-23T20:41:58.951Z,100213.81
2022-12-23T20:44:35.214Z,100217.59
2022-12-23T20:47:04.042Z,100217.59
2022-12-23T20:49:30.709Z,100231.13
2022-12-23T20:51:57.175Z,100233.81
2022-12-23T20:54:29.726Z,100229.22
2022-12-23T20:56:58.488Z,100243.00
2022-12-23T20:59:24.876Z,100243.00
2022-12-23T21:01:51.370Z,100252.75
2022-12-23T21:04:17.799Z,100261.66
2022-12-23T21:06:44.843Z,100271.19
2022-12-23T21:09:13.711Z,100271.19
2022-12-23T21:11:42.920Z,100270.13
2022-12-23T21:14:10.612Z,100278.47
2022-12-23T21:16:38.179Z,100285.75
2022-12-23T21:19:06.425Z,100284.13
2022-12-23T21:21:32.934Z,100287.88
2022-12-23T21:24:01.689Z,100296.81
2022-12-23T21:26:29.990Z,100293.53
2022-12-23T21:28:59.329Z,100289.28
2022-12-23T21:31:27.775Z,100296.34
2022-12-23T21:33:54.674Z,100307.97
2022-12-23T21:36:23.286Z,100305.25
2022-12-23T21:38:50.189Z,100310.69
2022-12-23T21:41:23.112Z,100313.13
2022-12-23T21:43:50.551Z,100318.28
2022-12-23T21:46:20.800Z,100326.91
2022-12-23T21:48:47.975Z,100324.44
2022-12-23T21:51:41.747Z,100334.66
2022-12-23T21:54:09.981Z,100333.84
2022-12-23T21:56:36.941Z,100338.09
2022-12-23T21:59:08.952Z,100335.41
2022-12-23T22:01:35.468Z,100339.75
2022-12-23T22:04:02.126Z,100342.06
2022-12-23T22:06:31.842Z,100343.38
2022-12-23T22:08:59.367Z,100353.84
2022-12-23T22:11:28.361Z,100360.56
2022-12-23T22:13:56.982Z,100364.81
2022-12-23T22:16:26.262Z,100372.78
2022-12-23T22:18:53.577Z,100386.66
2022-12-23T22:21:23.394Z,100385.94
2022-12-23T22:23:51.209Z,100388.53
2022-12-23T22:26:24.732Z,100389.47
2022-12-23T22:28:53.716Z,100395.13
2022-12-23T22:31:27.181Z,100400.16
2022-12-23T22:33:53.687Z,100404.16
2022-12-23T22:36:20.218Z,100410.38
2022-12-23T22:38:52.672Z,100412.59
2022-12-23T22:41:19.552Z,100416.94
2022-12-23T22:43:46.044Z,100425.03
2022-12-23T22:46:12.886Z,100427.75
2022-12-23T22:48:39.426Z,100434.34
2022-12-23T22:51:09.396Z,100432.13
2022-12-23T22:53:37.048Z,100435.25
2022-12-23T22:56:04.438Z,100433.63
2022-12-23T22:58:32.512Z,100437.38
2022-12-23T23:00:59.174Z,100448.19
2022-12-23T23:03:26.472Z,100453.59
2022-12-23T23:06:02.335Z,100449.81
2022-12-23T23:08:29.893Z,100453.72
2022-12-23T23:10:58.957Z,100457.03
2022-12-23T23:13:28.828Z,100455.13
2022-12-23T23:15:56.025Z,100452.22
2022-12-23T23:18:23.451Z,100455.50
2022-12-23T23:20:50.150Z,100453.38
2022-12-23T23:23:17.003Z,100471.22
2022-12-23T23:25:43.801Z,100471.22
2022-12-23T23:28:11.654Z,100466.88
2022-12-23T23:30:39.320Z,100456.66
2022-12-23T23:33:09.831Z,100484.28
2022-12-23T23:35:36.603Z,100469.34
2022-12-23T23:38:03.223Z,100480.16
2022-12-23T23:40:29.673Z,100473.94
2022-12-23T23:42:56.075Z,100482.03
2022-12-23T23:45:22.696Z,100484.97
2022-12-23T23:47:49.105Z,100492.25
2022-12-23T23:50:15.569Z,100495.78
2022-12-23T23:52:42.038Z,100497.66
2022-12-23T23:55:08.950Z,100500.84
2022-12-23T23:57:35.845Z,100502.94
